Grand Canyon, AZ

3:40 AM MST on August 20, 2014 (GMT -0700)
KAZGRAND3 | Change Station
CLOSE
Current Station
Personal Weather Station
Location: Grand Canyon, AZ
Elevation: 6991 ft
Nearby Weather Stations

Elev 6991 ft 36.05 °N, 112.12 °W | Updated 5 seconds ago

Mostly Cloudy
Mostly Cloudy
50.3 °F
Feels Like 50.3 °F
N
0.0
Wind Variable Wind from SSW
Gusts 0.0 mph

Today
High -- | Low -- °F
--% Chance of Precip.
Yesterday
High -- | Low -- °F
Precip. -- in
5:50 AM 7:12 PM
Waning Crescent, 22% visible
Pressure 30.23 in
Visibility 10.0 miles
Clouds Mostly Cloudy 8000 ft
Dew Point 45 °F
Humidity 82%
Rainfall 0.00 in
Snow Depth Not available.
UV 0 out of 12
Pollen 1.60 out of 12
Air Quality Not available.
Flu Activity Not available.
METAR KCMR 201035Z AUTO 21010KT 10SM BKN080 14/11 A3023 RMK AO1

More Conditions Fewer Conditions

Pressure 30.23 in
Visibility 10.0 miles
Clouds Mostly Cloudy 8000 ft
Dew Point 45 °F
Humidity 82%
Rainfall 0.00 in
Snow Depth Not available.
UV 0 out of 12
Pollen 1.60 out of 12
Air Quality Not available.
Flu Activity Not available.
METAR KCMR 201035Z AUTO 21010KT 10SM BKN080 14/11 A3023 RMK AO1

More Conditions Fewer Conditions

10-Day Weather Forecast

Almanac

Astronomy

Aug. 20, 2014 Rise Set
Actual Time 5:50 AM MST 7:12 PM MST
Civil Twilight 5:24 AM MST 7:39 PM MST
Nautical Twilight 4:51 AM MST 8:11 PM MST
Astronomical Twilight 4:18 AM MST 8:44 PM MST
Moon 1:37 AM MST 3:56 PM MST
Length of Visible Light 14h 15m
Length of Day
13h 21m
Tomorrow will be 2m 5s shorter.
Waning Crescent, 22% of the Moon is Illuminated
Today
Waning Crescent
Aug 25
New
Sep 2
First Quarter
Sep 8
Full
Sep 15
Last Quarter

Today's Extremes

State Highs State Lows

Community

WunderPhotos

Upload Photos

1,745,605 photos uploaded!

Nearby

Snow Depth

Station Depth Elevation
Snowslide Canyon 1 in 9730 ft
White Horse Lake 1 in 7180 ft
Mormon Mountain 0 in 7500 ft
Promontory 0 in 7930 ft
Heber 0 in 7640 ft

Earthquake Activity

City Distance Mag. Time & Date
No recent earthquake activity has been reported nearby.
Minimum magnitude displayed is 2.5.

Coastal Water Temperatures

Place Temperature
No Stations Reporting

Nearby Weather Stations